sensor_id;sensor_type;location;lat;lon;timestamp;P1;P4;P2;P0;N10;N4;N25;N1;N05;TS
82002;SPS30;71522;50.870;3.524;2024-02-23T00:00:20;4.29;3.80;2.80;1.52;12.21;12.15;11.91;10.72;7.38;0.92
82002;SPS30;71522;50.870;3.524;2024-02-23T00:02:45;3.86;3.43;2.53;1.39;11.18;11.13;10.92;9.86;6.85;0.91
82002;SPS30;71522;50.870;3.524;2024-02-23T00:05:11;3.37;2.99;2.21;1.21;9.69;9.65;9.46;8.54;5.91;0.91
82002;SPS30;71522;50.870;3.524;2024-02-23T00:07:37;3.63;3.22;2.39;1.33;10.66;10.61;10.41;9.43;6.59;0.89
82002;SPS30;71522;50.870;3.524;2024-02-23T00:10:03;3.30;2.93;2.17;1.20;9.66;9.62;9.43;8.54;5.96;0.89
82002;SPS30;71522;50.870;3.524;2024-02-23T00:12:29;3.14;2.78;2.05;1.12;8.99;8.95;8.78;7.91;5.47;0.90
82002;SPS30;71522;50.870;3.524;2024-02-23T00:14:55;3.48;3.07;2.25;1.20;9.65;9.61;9.41;8.44;5.74;0.92
82002;SPS30;71522;50.870;3.524;2024-02-23T00:17:21;3.33;2.95;2.16;1.16;9.30;9.25;9.06;8.13;5.55;0.92
82002;SPS30;71522;50.870;3.524;2024-02-23T00:19:47;2.98;2.64;1.94;1.05;8.42;8.38;8.21;7.39;5.07;0.91
82002;SPS30;71522;50.870;3.524;2024-02-23T00:22:14;2.94;2.61;1.93;1.07;8.55;8.51;8.35;7.55;5.25;0.89
82002;SPS30;71522;50.870;3.524;2024-02-23T00:24:47;3.05;2.71;2.01;1.11;8.94;8.90;8.73;7.90;5.51;0.89
82002;SPS30;71522;50.870;3.524;2024-02-23T00:27:13;2.87;2.55;1.88;1.03;8.30;8.26;8.10;7.32;5.07;0.89
82002;SPS30;71522;50.870;3.524;2024-02-23T00:30:18;3.21;2.84;2.08;1.11;8.94;8.90;8.72;7.82;5.33;0.91
82002;SPS30;71522;50.870;3.524;2024-02-23T00:32:47;3.41;3.02;2.21;1.18;9.44;9.39;9.20;8.24;5.60;0.91
82002;SPS30;71522;50.870;3.524;2024-02-23T00:35:12;3.56;3.15;2.31;1.25;9.99;9.95;9.75;8.75;5.99;0.90
82002;SPS30;71522;50.870;3.524;2024-02-23T00:37:38;3.48;3.08;2.27;1.24;9.92;9.88;9.68;8.72;6.02;0.89
82002;SPS30;71522;50.870;3.524;2024-02-23T00:40:04;3.78;3.36;2.50;1.40;11.22;11.17;10.97;9.95;6.98;0.87
82002;SPS30;71522;50.870;3.524;2024-02-23T00:42:30;3.19;2.83;2.10;1.17;9.39;9.35;9.18;8.31;5.82;0.88
82002;SPS30;71522;50.870;3.524;2024-02-23T00:44:56;3.54;3.15;2.34;1.31;10.51;10.47;10.28;9.32;6.54;0.88
82002;SPS30;71522;50.870;3.524;2024-02-23T00:47:22;3.57;3.18;2.37;1.33;10.67;10.62;10.43;9.47;6.67;0.88
82002;SPS30;71522;50.870;3.524;2024-02-23T00:49:48;3.46;3.07;2.27;1.26;10.08;10.03;9.84;8.90;6.20;0.90
82002;SPS30;71522;50.870;3.524;2024-02-23T00:52:14;3.59;3.18;2.33;1.26;10.10;10.05;9.85;8.86;6.07;0.91
82002;SPS30;71522;50.870;3.524;2024-02-23T00:54:43;3.37;2.99;2.21;1.20;9.65;9.61;9.42;8.49;5.86;0.90
82002;SPS30;71522;50.870;3.524;2024-02-23T00:57:11;3.38;3.01;2.24;1.27;10.15;10.11;9.93;9.02;6.37;0.89
82002;SPS30;71522;50.870;3.524;2024-02-23T00:59:37;3.24;2.88;2.14;1.19;9.55;9.50;9.33;8.45;5.91;0.91
82002;SPS30;71522;50.870;3.524;2024-02-23T01:02:10;2.94;2.62;1.96;1.12;8.97;8.94;8.78;8.00;5.68;0.88
82002;SPS30;71522;50.870;3.524;2024-02-23T01:04:37;2.99;2.67;2.02;1.18;9.43;9.40;9.24;8.47;6.09;0.87
82002;SPS30;71522;50.870;3.524;2024-02-23T01:07:03;2.90;2.59;1.95;1.12;9.00;8.96;8.81;8.05;5.75;0.88
82002;SPS30;71522;50.870;3.524;2024-02-23T01:09:29;3.40;3.03;2.25;1.26;10.10;10.05;9.87;8.95;6.28;0.89
82002;SPS30;71522;50.870;3.524;2024-02-23T01:11:54;3.24;2.88;2.14;1.19;9.55;9.51;9.33;8.46;5.92;0.90
82002;SPS30;71522;50.870;3.524;2024-02-23T01:14:20;3.74;3.32;2.47;1.37;10.98;10.93;10.73;9.71;6.78;0.90
82002;SPS30;71522;50.870;3.524;2024-02-23T01:16:48;3.45;3.06;2.25;1.21;9.73;9.69;9.49;8.53;5.85;0.91
82002;SPS30;71522;50.870;3.524;2024-02-23T01:19:14;3.34;2.97;2.21;1.23;9.89;9.85;9.67;8.77;6.15;0.88
82002;SPS30;71522;50.870;3.524;2024-02-23T01:21:55;3.56;3.17;2.37;1.35;10.84;10.79;10.60;9.66;6.85;0.87
82002;SPS30;71522;50.870;3.524;2024-02-23T01:24:26;3.55;3.15;2.33;1.28;10.30;10.25;10.06;9.08;6.31;0.90
82002;SPS30;71522;50.870;3.524;2024-02-23T01:26:56;3.69;3.27;2.39;1.27;10.21;10.16;9.96;8.92;6.06;0.93
82002;SPS30;71522;50.870;3.524;2024-02-23T01:29:32;3.95;3.49;2.54;1.34;10.79;10.73;10.51;9.39;6.34;0.93
82002;SPS30;71522;50.870;3.524;2024-02-23T01:31:59;3.43;3.03;2.21;1.17;9.41;9.36;9.16;8.20;5.55;0.92
82002;SPS30;71522;50.870;3.524;2024-02-23T01:34:25;4.00;3.54;2.60;1.41;11.32;11.27;11.05;9.94;6.83;0.91
82002;SPS30;71522;50.870;3.524;2024-02-23T01:36:51;3.97;3.53;2.62;1.46;11.70;11.65;11.43;10.36;7.24;0.88
82002;SPS30;71522;50.870;3.524;2024-02-23T01:39:16;3.69;3.28;2.43;1.35;10.80;10.75;10.55;9.54;6.65;0.88
82002;SPS30;71522;50.870;3.524;2024-02-23T01:41:42;4.29;3.81;2.84;1.59;12.78;12.72;12.49;11.33;7.97;0.87
82002;SPS30;71522;50.870;3.524;2024-02-23T01:44:11;3.74;3.34;2.52;1.46;11.74;11.70;11.50;10.53;7.56;0.85
82002;SPS30;71522;50.870;3.524;2024-02-23T01:46:37;4.95;4.43;3.34;1.95;15.62;15.56;15.30;14.02;10.08;0.85
82002;SPS30;71522;50.870;3.524;2024-02-23T01:49:02;3.94;3.54;2.71;1.63;13.03;12.99;12.79;11.80;8.63;0.82
82002;SPS30;71522;50.870;3.524;2024-02-23T01:51:30;4.34;3.90;3.01;1.85;14.79;14.73;14.52;13.46;9.95;0.80
82002;SPS30;71522;50.870;3.524;2024-02-23T01:53:56;4.04;3.63;2.79;1.69;13.58;13.53;13.33;12.32;9.07;0.80
82002;SPS30;71522;50.870;3.524;2024-02-23T01:56:23;3.97;3.58;2.79;1.76;14.09;14.04;13.85;12.91;9.68;0.78
82002;SPS30;71522;50.870;3.524;2024-02-23T01:58:48;4.47;4.06;3.20;2.06;16.49;16.44;16.24;15.21;11.53;0.76
82002;SPS30;71522;50.870;3.524;2024-02-23T02:01:14;3.93;3.59;2.91;1.98;15.87;15.83;15.66;14.84;11.53;0.72
82002;SPS30;71522;50.870;3.524;2024-02-23T02:03:41;3.32;3.08;2.57;1.87;14.98;14.95;14.83;14.22;11.34;0.66
82002;SPS30;71522;50.870;3.524;2024-02-23T02:06:07;3.69;3.41;2.84;2.04;16.33;16.30;16.16;15.46;12.28;0.67
82002;SPS30;71522;50.870;3.524;2024-02-23T02:08:35;3.75;3.47;2.90;2.09;16.76;16.72;16.58;15.88;12.64;0.69
82002;SPS30;71522;50.870;3.524;2024-02-23T02:11:02;3.55;3.28;2.74;1.98;15.80;15.77;15.64;14.97;11.91;0.70
82002;SPS30;71522;50.870;3.524;2024-02-23T02:13:29;3.52;3.26;2.71;1.95;15.63;15.60;15.47;14.81;11.77;0.69
82002;SPS30;71522;50.870;3.524;2024-02-23T02:15:57;3.64;3.39;2.87;2.13;17.01;16.98;16.85;16.21;13.02;0.67
82002;SPS30;71522;50.870;3.524;2024-02-23T02:18:29;4.02;3.72;3.09;2.23;17.81;17.77;17.62;16.86;13.40;0.70
82002;SPS30;71522;50.870;3.524;2024-02-23T02:20:55;3.69;3.42;2.85;2.07;16.53;16.49;16.36;15.67;12.48;0.70
82002;SPS30;71522;50.870;3.524;2024-02-23T02:23:23;3.81;3.53;2.95;2.14;17.14;17.11;16.97;16.26;12.96;0.69
82002;SPS30;71522;50.870;3.524;2024-02-23T02:25:53;3.81;3.51;2.91;2.07;16.56;16.52;16.37;15.64;12.37;0.70
82002;SPS30;71522;50.870;3.524;2024-02-23T02:28:20;3.73;3.44;2.84;2.01;16.07;16.03;15.89;15.16;11.96;0.70
82002;SPS30;71522;50.870;3.524;2024-02-23T02:30:46;3.62;3.35;2.80;2.02;16.18;16.15;16.02;15.34;12.21;0.68
82002;SPS30;71522;50.870;3.524;2024-02-23T02:33:12;3.85;3.56;2.96;2.13;17.03;16.99;16.85;16.12;12.81;0.68
82002;SPS30;71522;50.870;3.524;2024-02-23T02:35:37;3.38;3.13;2.60;1.87;14.95;14.92;14.79;14.15;11.24;0.69
82002;SPS30;71522;50.870;3.524;2024-02-23T02:38:03;3.93;3.63;3.02;2.16;17.30;17.27;17.12;16.37;12.99;0.69
82002;SPS30;71522;50.870;3.524;2024-02-23T02:40:29;3.59;3.33;2.78;2.02;16.18;16.14;16.01;15.35;12.23;0.70
82002;SPS30;71522;50.870;3.524;2024-02-23T02:43:07;4.03;3.74;3.14;2.29;18.33;18.29;18.14;17.41;13.91;0.70
82002;SPS30;71522;50.870;3.524;2024-02-23T02:45:33;3.91;3.65;3.10;2.32;18.58;18.54;18.41;17.74;14.31;0.67
82002;SPS30;71522;50.870;3.524;2024-02-23T02:48:02;3.88;3.62;3.09;2.32;18.55;18.52;18.39;17.73;14.32;0.66
82002;SPS30;71522;50.870;3.524;2024-02-23T02:50:28;4.13;3.84;3.24;2.39;19.14;19.10;18.96;18.22;14.61;0.67
82002;SPS30;71522;50.870;3.524;2024-02-23T02:52:54;3.80;3.52;2.94;2.14;17.11;17.08;16.94;16.24;12.95;0.69
82002;SPS30;71522;50.870;3.524;2024-02-23T02:55:21;3.75;3.48;2.93;2.16;17.26;17.23;17.09;16.42;13.15;0.68
82002;SPS30;71522;50.870;3.524;2024-02-23T02:57:46;3.80;3.52;2.95;2.15;17.21;17.17;17.04;16.34;13.04;0.70
82002;SPS30;71522;50.870;3.524;2024-02-23T03:00:13;3.89;3.59;2.97;2.11;16.91;16.87;16.72;15.97;12.63;0.71
82002;SPS30;71522;50.870;3.524;2024-02-23T03:02:38;4.08;3.73;3.03;2.07;16.57;16.53;16.36;15.51;12.07;0.73
82002;SPS30;71522;50.870;3.524;2024-02-23T03:05:07;4.38;4.02;3.27;2.26;18.10;18.06;17.88;16.98;13.27;0.73
82002;SPS30;71522;50.870;3.524;2024-02-23T03:07:47;3.90;3.57;2.89;1.97;15.75;15.71;15.55;14.73;11.45;0.74
82002;SPS30;71522;50.870;3.524;2024-02-23T03:10:35;3.44;3.16;2.57;1.77;14.17;14.14;14.00;13.29;10.38;0.73
82002;SPS30;71522;50.870;3.524;2024-02-23T03:13:01;3.85;3.52;2.83;1.91;15.33;15.29;15.12;14.30;11.07;0.75
82002;SPS30;71522;50.870;3.524;2024-02-23T03:15:26;3.61;3.29;2.63;1.75;13.98;13.94;13.78;12.99;9.98;0.76
82002;SPS30;71522;50.870;3.524;2024-02-23T03:17:52;3.65;3.33;2.67;1.80;14.38;14.34;14.18;13.39;10.34;0.75
82002;SPS30;71522;50.870;3.524;2024-02-23T03:20:19;3.93;3.58;2.86;1.90;15.19;15.15;14.98;14.12;10.85;0.75
82002;SPS30;71522;50.870;3.524;2024-02-23T03:22:45;3.46;3.15;2.52;1.68;13.46;13.43;13.28;12.52;9.64;0.75
82002;SPS30;71522;50.870;3.524;2024-02-23T03:25:11;3.80;3.47;2.80;1.88;15.08;15.04;14.88;14.07;10.88;0.75
82002;SPS30;71522;50.870;3.524;2024-02-23T03:27:37;3.35;3.09;2.55;1.80;14.39;14.36;14.23;13.57;10.70;0.71
82002;SPS30;71522;50.870;3.524;2024-02-23T03:30:14;3.41;3.15;2.61;1.87;14.93;14.90;14.77;14.12;11.18;0.69
82002;SPS30;71522;50.870;3.524;2024-02-23T03:32:40;3.46;3.20;2.65;1.90;15.18;15.15;15.02;14.36;11.38;0.70
82002;SPS30;71522;50.870;3.524;2024-02-23T03:35:16;3.30;3.06;2.54;1.83;14.66;14.63;14.50;13.88;11.03;0.70
82002;SPS30;71522;50.870;3.524;2024-02-23T03:38:04;3.11;2.88;2.41;1.75;14.01;13.99;13.87;13.30;10.60;0.69
82002;SPS30;71522;50.870;3.524;2024-02-23T03:40:30;3.27;3.00;2.44;1.68;13.48;13.45;13.31;12.64;9.88;0.74
82002;SPS30;71522;50.870;3.524;2024-02-23T03:42:55;3.45;3.17;2.57;1.77;14.16;14.12;13.98;13.26;10.35;0.73
82002;SPS30;71522;50.870;3.524;2024-02-23T03:45:21;3.50;3.21;2.61;1.79;14.29;14.26;14.11;13.38;10.43;0.74
82002;SPS30;71522;50.870;3.524;2024-02-23T03:47:49;3.84;3.52;2.86;1.97;15.75;15.72;15.56;14.76;11.52;0.75
82002;SPS30;71522;50.870;3.524;2024-02-23T03:50:35;3.61;3.30;2.67;1.82;14.59;14.55;14.40;13.64;10.61;0.75
82002;SPS30;71522;50.870;3.524;2024-02-23T03:53:01;3.49;3.20;2.60;1.79;14.32;14.28;14.14;13.41;10.46;0.74
82002;SPS30;71522;50.870;3.524;2024-02-23T03:55:27;3.46;3.19;2.62;1.83;14.67;14.64;14.50;13.81;10.86;0.73
82002;SPS30;71522;50.870;3.524;2024-02-23T03:57:52;3.53;3.26;2.71;1.94;15.54;15.51;15.38;14.70;11.66;0.71
82002;SPS30;71522;50.870;3.524;2024-02-23T04:00:18;3.64;3.36;2.79;1.99;15.96;15.92;15.78;15.09;11.96;0.71
82002;SPS30;71522;50.870;3.524;2024-02-23T04:02:46;3.13;2.89;2.39;1.70;13.63;13.60;13.48;12.88;10.19;0.71
82002;SPS30;71522;50.870;3.524;2024-02-23T04:05:11;3.38;3.13;2.61;1.89;15.16;15.13;15.00;14.38;11.46;0.69
82002;SPS30;71522;50.870;3.524;2024-02-23T04:07:38;3.66;3.39;2.84;2.07;16.55;16.52;16.39;15.71;12.54;0.68
82002;SPS30;71522;50.870;3.524;2024-02-23T04:10:03;3.24;3.02;2.56;1.91;15.27;15.24;15.13;14.57;11.72;0.67
82002;SPS30;71522;50.870;3.524;2024-02-23T04:12:30;3.11;2.89;2.44;1.81;14.47;14.44;14.33;13.78;11.06;0.68
82002;SPS30;71522;50.870;3.524;2024-02-23T04:14:56;3.40;3.15;2.63;1.91;15.27;15.24;15.11;14.48;11.54;0.69
82002;SPS30;71522;50.870;3.524;2024-02-23T04:17:22;3.33;3.06;2.51;1.76;14.07;14.03;13.90;13.24;10.40;0.72
82002;SPS30;71522;50.870;3.524;2024-02-23T04:19:49;3.47;3.17;2.56;1.74;13.95;13.91;13.77;13.04;10.12;0.74
82002;SPS30;71522;50.870;3.524;2024-02-23T04:22:35;4.10;3.72;2.94;1.91;15.30;15.26;15.07;14.14;10.76;0.77
82002;SPS30;71522;50.870;3.524;2024-02-23T04:25:01;4.51;4.08;3.19;2.03;16.26;16.21;15.99;14.94;11.25;0.80
82002;SPS30;71522;50.870;3.524;2024-02-23T04:27:29;3.97;3.60;2.85;1.85;14.82;14.78;14.60;13.70;10.42;0.77
82002;SPS30;71522;50.870;3.524;2024-02-23T04:29:55;4.69;4.25;3.34;2.13;17.08;17.03;16.81;15.72;11.87;0.79
82002;SPS30;71522;50.870;3.524;2024-02-23T04:32:20;4.30;3.89;3.04;1.92;15.41;15.36;15.16;14.14;10.63;0.81
82002;SPS30;71522;50.870;3.524;2024-02-23T04:34:46;4.28;3.85;2.97;1.82;14.62;14.57;14.36;13.31;9.85;0.85
82002;SPS30;71522;50.870;3.524;2024-02-23T04:37:12;4.60;4.14;3.20;1.96;15.72;15.66;15.44;14.31;10.59;0.84
82002;SPS30;71522;50.870;3.524;2024-02-23T04:39:38;4.54;4.09;3.17;1.97;15.78;15.73;15.51;14.41;10.73;0.82
82002;SPS30;71522;50.870;3.524;2024-02-23T04:42:07;4.62;4.17;3.24;2.02;16.22;16.16;15.94;14.84;11.08;0.81
82002;SPS30;71522;50.870;3.524;2024-02-23T04:44:34;4.20;3.78;2.92;1.79;14.33;14.28;14.07;13.04;9.64;0.83
82002;SPS30;71522;50.870;3.524;2024-02-23T04:47:00;4.66;4.17;3.18;1.90;15.19;15.14;14.90;13.72;9.99;0.84
82002;SPS30;71522;50.870;3.524;2024-02-23T04:49:27;4.49;4.02;3.07;1.83;14.69;14.64;14.41;13.28;9.68;0.84
82002;SPS30;71522;50.870;3.524;2024-02-23T04:51:52;5.10;4.57;3.48;2.08;16.67;16.61;16.35;15.06;10.98;0.84
82002;SPS30;71522;50.870;3.524;2024-02-23T04:54:18;4.20;3.77;2.89;1.74;13.94;13.89;13.68;12.63;9.26;0.83
82002;SPS30;71522;50.870;3.524;2024-02-23T04:56:44;3.99;3.57;2.71;1.60;12.80;12.75;12.55;11.52;8.34;0.86
82002;SPS30;71522;50.870;3.524;2024-02-23T04:59:10;4.51;4.02;3.03;1.76;14.09;14.04;13.80;12.63;9.05;0.88
82002;SPS30;71522;50.870;3.524;2024-02-23T05:01:36;4.76;4.23;3.15;1.76;14.09;14.03;13.77;12.48;8.74;0.89
82002;SPS30;71522;50.870;3.524;2024-02-23T05:06:45;4.95;4.41;3.28;1.84;14.76;14.70;14.43;13.10;9.21;0.87
82002;SPS30;71522;50.870;3.524;2024-02-23T05:09:13;4.87;4.34;3.23;1.82;14.56;14.50;14.24;12.93;9.10;0.88
82002;SPS30;71522;50.870;3.524;2024-02-23T05:11:46;5.03;4.46;3.31;1.83;14.67;14.60;14.33;12.96;9.02;0.89
82002;SPS30;71522;50.870;3.524;2024-02-23T05:14:15;4.43;3.95;2.96;1.68;13.51;13.46;13.22;12.04;8.55;0.88
82002;SPS30;71522;50.870;3.524;2024-02-23T05:16:41;4.95;4.42;3.31;1.90;15.20;15.14;14.88;13.57;9.65;0.87
82002;SPS30;71522;50.870;3.524;2024-02-23T05:19:13;4.96;4.42;3.32;1.90;15.22;15.16;14.90;13.59;9.67;0.87
82002;SPS30;71522;50.870;3.524;2024-02-23T05:21:39;4.51;4.03;3.05;1.79;14.32;14.26;14.03;12.86;9.27;0.85
82002;SPS30;71522;50.870;3.524;2024-02-23T05:24:12;4.21;3.75;2.83;1.63;13.09;13.03;12.81;11.71;8.38;0.87
82002;SPS30;71522;50.870;3.524;2024-02-23T05:26:38;5.02;4.48;3.37;1.93;15.49;15.42;15.16;13.83;9.86;0.87
82002;SPS30;71522;50.870;3.524;2024-02-23T05:29:04;4.71;4.20;3.15;1.80;14.46;14.40;14.15;12.90;9.18;0.89
82002;SPS30;71522;50.870;3.524;2024-02-23T05:31:46;4.95;4.42;3.32;1.91;15.35;15.29;15.03;13.73;9.81;0.88
82002;SPS30;71522;50.870;3.524;2024-02-23T05:34:14;4.47;4.01;3.06;1.83;14.68;14.62;14.39;13.27;9.68;0.84
82002;SPS30;71522;50.870;3.524;2024-02-23T05:36:43;4.42;3.98;3.08;1.90;15.23;15.18;14.96;13.88;10.30;0.82
82002;SPS30;71522;50.870;3.524;2024-02-23T05:39:10;4.69;4.22;3.25;1.99;15.97;15.91;15.68;14.53;10.74;0.84
82002;SPS30;71522;50.870;3.524;2024-02-23T05:41:37;5.33;4.79;3.68;2.24;17.93;17.86;17.60;16.27;11.98;0.84
82002;SPS30;71522;50.870;3.524;2024-02-23T05:44:04;5.18;4.64;3.54;2.11;16.88;16.81;16.55;15.23;11.09;0.87
82002;SPS30;71522;50.870;3.524;2024-02-23T05:46:35;5.29;4.71;3.54;2.03;16.26;16.19;15.91;14.52;10.34;0.90
82002;SPS30;71522;50.870;3.524;2024-02-23T05:49:02;5.53;4.94;3.72;2.15;17.23;17.16;16.87;15.43;11.04;0.88
82002;SPS30;71522;50.870;3.524;2024-02-23T05:51:29;4.67;4.20;3.24;1.99;15.94;15.89;15.66;14.51;10.74;0.83
82002;SPS30;71522;50.870;3.524;2024-02-23T05:53:56;4.58;4.11;3.14;1.89;15.11;15.05;14.82;13.67;10.00;0.85
82002;SPS30;71522;50.870;3.524;2024-02-23T05:56:22;4.94;4.40;3.30;1.88;15.09;15.03;14.76;13.46;9.56;0.87
82002;SPS30;71522;50.870;3.524;2024-02-23T05:58:51;5.00;4.45;3.31;1.85;14.82;14.75;14.48;13.13;9.21;0.88
82002;SPS30;71522;50.870;3.524;2024-02-23T06:01:20;5.33;4.72;3.49;1.91;15.31;15.24;14.95;13.48;9.33;0.89
82002;SPS30;71522;50.870;3.524;2024-02-23T06:03:57;5.66;5.05;3.80;2.19;17.56;17.48;17.19;15.70;11.21;0.84
82002;SPS30;71522;50.870;3.524;2024-02-23T06:06:24;5.34;4.76;3.58;2.07;16.57;16.50;16.22;14.82;10.59;0.84
82002;SPS30;71522;50.870;3.524;2024-02-23T06:08:52;5.33;4.76;3.61;2.12;16.99;16.92;16.64;15.27;11.03;0.85
82002;SPS30;71522;50.870;3.524;2024-02-23T06:11:20;5.04;4.51;3.42;2.02;16.19;16.13;15.87;14.58;10.56;0.85
82002;SPS30;71522;50.870;3.524;2024-02-23T06:13:47;5.69;5.07;3.80;2.16;17.33;17.26;16.96;15.45;10.96;0.87
82002;SPS30;71522;50.870;3.524;2024-02-23T06:16:16;5.50;4.89;3.64;2.04;16.34;16.27;15.97;14.49;10.17;0.90
82002;SPS30;71522;50.870;3.524;2024-02-23T06:18:45;5.14;4.58;3.42;1.94;15.57;15.50;15.23;13.86;9.81;0.89
82002;SPS30;71522;50.870;3.524;2024-02-23T06:21:14;5.62;5.00;3.73;2.09;16.80;16.73;16.42;14.91;10.49;0.90
82002;SPS30;71522;50.870;3.524;2024-02-23T06:23:42;5.20;4.64;3.47;1.97;15.79;15.73;15.45;14.06;9.96;0.89
82002;SPS30;71522;50.870;3.524;2024-02-23T06:26:09;5.79;5.17;3.89;2.24;17.98;17.90;17.60;16.08;11.49;0.87
82002;SPS30;71522;50.870;3.524;2024-02-23T06:28:35;5.07;4.54;3.45;2.04;16.38;16.31;16.05;14.76;10.71;0.85
82002;SPS30;71522;50.870;3.524;2024-02-23T06:31:04;5.25;4.70;3.57;2.10;16.85;16.78;16.51;15.17;10.97;0.85
82002;SPS30;71522;50.870;3.524;2024-02-23T06:33:32;5.28;4.69;3.50;1.96;15.76;15.69;15.40;13.99;9.84;0.88
82002;SPS30;71522;50.870;3.524;2024-02-23T06:35:58;5.34;4.75;3.55;2.00;16.05;15.98;15.70;14.27;10.06;0.87
82002;SPS30;71522;50.870;3.524;2024-02-23T06:38:23;5.89;5.25;3.94;2.25;18.01;17.93;17.62;16.06;11.41;0.87
82002;SPS30;71522;50.870;3.524;2024-02-23T06:40:49;5.44;4.85;3.64;2.08;16.68;16.61;16.32;14.89;10.59;0.86
82002;SPS30;71522;50.870;3.524;2024-02-23T06:43:15;4.52;4.05;3.10;1.86;14.90;14.84;14.61;13.48;9.85;0.84
82002;SPS30;71522;50.870;3.524;2024-02-23T06:45:42;4.77;4.28;3.29;2.00;16.00;15.94;15.71;14.53;10.69;0.84
82002;SPS30;71522;50.870;3.524;2024-02-23T06:48:11;4.18;3.74;2.85;1.70;13.61;13.56;13.34;12.29;8.94;0.85
82002;SPS30;71522;50.870;3.524;2024-02-23T06:50:49;4.73;4.25;3.26;1.97;15.77;15.71;15.48;14.30;10.49;0.85
82002;SPS30;71522;50.870;3.524;2024-02-23T06:53:18;4.42;3.95;2.99;1.76;14.08;14.03;13.80;12.67;9.15;0.86
82002;SPS30;71522;50.870;3.524;2024-02-23T06:55:43;6.11;5.44;4.07;2.31;18.56;18.48;18.15;16.53;11.71;0.87
82002;SPS30;71522;50.870;3.524;2024-02-23T06:58:09;5.38;4.79;3.58;2.03;16.25;16.18;15.89;14.45;10.21;0.88
82002;SPS30;71522;50.870;3.524;2024-02-23T07:00:44;5.12;4.57;3.42;1.95;15.62;15.56;15.28;13.92;9.88;0.89
82002;SPS30;71522;50.870;3.524;2024-02-23T07:03:10;5.42;4.80;3.55;1.95;15.67;15.60;15.30;13.82;9.59;0.92
82002;SPS30;71522;50.870;3.524;2024-02-23T07:05:36;5.69;5.06;3.75;2.08;16.71;16.64;16.33;14.78;10.32;0.92
82002;SPS30;71522;50.870;3.524;2024-02-23T07:08:12;5.57;4.96;3.73;2.14;17.14;17.07;16.77;15.31;10.90;0.89
82002;SPS30;71522;50.870;3.524;2024-02-23T07:10:39;4.89;4.39;3.38;2.05;16.46;16.40;16.16;14.95;11.01;0.85
82002;SPS30;71522;50.870;3.524;2024-02-23T07:13:05;5.47;4.89;3.72;2.20;17.65;17.58;17.30;15.90;11.54;0.87
82002;SPS30;71522;50.870;3.524;2024-02-23T07:15:36;5.03;4.48;3.35;1.90;15.21;15.15;14.88;13.54;9.57;0.90
82002;SPS30;71522;50.870;3.524;2024-02-23T07:18:03;5.43;4.81;3.55;1.95;15.64;15.57;15.27;13.78;9.55;0.93
82002;SPS30;71522;50.870;3.524;2024-02-23T07:20:29;5.28;4.70;3.52;2.00;16.02;15.95;15.67;14.27;10.10;0.88
82002;SPS30;71522;50.870;3.524;2024-02-23T07:22:54;5.14;4.58;3.44;1.98;15.85;15.78;15.51;14.16;10.10;0.88
82002;SPS30;71522;50.870;3.524;2024-02-23T07:25:20;4.93;4.40;3.32;1.93;15.45;15.39;15.13;13.85;9.93;0.87
82002;SPS30;71522;50.870;3.524;2024-02-23T07:27:46;5.16;4.61;3.48;2.03;16.27;16.21;15.94;14.60;10.51;0.86
82002;SPS30;71522;50.870;3.524;2024-02-23T07:30:15;6.07;5.43;4.12;2.42;19.40;19.32;19.01;17.45;12.61;0.87
82002;SPS30;71522;50.870;3.524;2024-02-23T07:32:42;4.84;4.33;3.29;1.94;15.57;15.51;15.27;14.03;10.17;0.85
82002;SPS30;71522;50.870;3.524;2024-02-23T07:37:48;5.18;4.64;3.53;2.08;16.71;16.65;16.38;15.06;10.92;0.85
82002;SPS30;71522;50.870;3.524;2024-02-23T07:40:23;4.66;4.18;3.19;1.91;15.33;15.27;15.03;13.86;10.12;0.85
82002;SPS30;71522;50.870;3.524;2024-02-23T07:42:48;5.15;4.62;3.51;2.08;16.68;16.61;16.35;15.04;10.92;0.84
82002;SPS30;71522;50.870;3.524;2024-02-23T07:45:14;5.58;5.00;3.80;2.25;18.04;17.98;17.69;16.27;11.81;0.84
82002;SPS30;71522;50.870;3.524;2024-02-23T07:47:40;4.84;4.33;3.29;1.94;15.52;15.46;15.21;13.96;10.10;0.84
82002;SPS30;71522;50.870;3.524;2024-02-23T07:50:06;5.55;4.96;3.76;2.20;17.66;17.59;17.31;15.88;11.46;0.86
82002;SPS30;71522;50.870;3.524;2024-02-23T07:52:32;5.70;5.08;3.80;2.15;17.28;17.21;16.90;15.39;10.89;0.89
82002;SPS30;71522;50.870;3.524;2024-02-23T07:55:01;5.15;4.59;3.45;1.98;15.87;15.80;15.53;14.18;10.10;0.88
82002;SPS30;71522;50.870;3.524;2024-02-23T07:57:28;5.29;4.72;3.53;2.01;16.15;16.09;15.81;14.40;10.23;0.88
82002;SPS30;71522;50.870;3.524;2024-02-23T07:59:54;4.80;4.29;3.24;1.88;15.07;15.01;14.76;13.51;9.70;0.86
82002;SPS30;71522;50.870;3.524;2024-02-23T08:02:19;5.41;4.82;3.62;2.07;16.59;16.52;16.23;14.80;10.53;0.87
82002;SPS30;71522;50.870;3.524;2024-02-23T08:04:45;4.86;4.34;3.27;1.89;15.15;15.09;14.83;13.57;9.72;0.88
82002;SPS30;71522;50.870;3.524;2024-02-23T08:07:12;5.11;4.56;3.44;1.99;15.97;15.91;15.64;14.31;10.26;0.88
82002;SPS30;71522;50.870;3.524;2024-02-23T08:09:39;5.15;4.62;3.53;2.12;16.96;16.90;16.64;15.34;11.20;0.86
82002;SPS30;71522;50.870;3.524;2024-02-23T08:12:07;4.85;4.35;3.33;2.01;16.09;16.03;15.78;14.57;10.68;0.85
82002;SPS30;71522;50.870;3.524;2024-02-23T08:14:33;5.14;4.63;3.58;2.21;17.68;17.62;17.36;16.11;11.95;0.84
82002;SPS30;71522;50.870;3.524;2024-02-23T08:16:58;4.44;3.98;3.05;1.84;14.71;14.66;14.44;13.32;9.76;0.87
82002;SPS30;71522;50.870;3.524;2024-02-23T08:19:25;4.83;4.36;3.39;2.12;17.02;16.96;16.73;15.58;11.65;0.84
82002;SPS30;71522;50.870;3.524;2024-02-23T08:21:50;4.79;4.33;3.39;2.14;17.17;17.12;16.89;15.77;11.85;0.83
82002;SPS30;71522;50.870;3.524;2024-02-23T08:24:16;4.47;4.03;3.13;1.95;15.66;15.61;15.39;14.32;10.69;0.83
82002;SPS30;71522;50.870;3.524;2024-02-23T08:26:42;3.84;3.48;2.75;1.78;14.24;14.20;14.02;13.14;9.98;0.80
82002;SPS30;71522;50.870;3.524;2024-02-23T08:29:08;3.81;3.46;2.74;1.78;14.23;14.19;14.01;13.15;10.00;0.79
82002;SPS30;71522;50.870;3.524;2024-02-23T08:31:34;4.06;3.69;2.94;1.94;15.57;15.52;15.34;14.45;11.07;0.76
82002;SPS30;71522;50.870;3.524;2024-02-23T08:34:00;4.26;3.86;3.04;1.96;15.69;15.65;15.45;14.47;10.97;0.78
82002;SPS30;71522;50.870;3.524;2024-02-23T08:36:25;4.56;4.13;3.23;2.05;16.43;16.37;16.16;15.09;11.35;0.81
82002;SPS30;71522;50.870;3.524;2024-02-23T08:38:52;3.98;3.62;2.87;1.87;14.98;14.93;14.75;13.85;10.56;0.79
82002;SPS30;71522;50.870;3.524;2024-02-23T08:41:18;4.43;4.00;3.12;1.96;15.74;15.69;15.48;14.43;10.82;0.81
82002;SPS30;71522;50.870;3.524;2024-02-23T08:43:43;4.43;3.99;3.08;1.89;15.12;15.07;14.85;13.76;10.18;0.83
82002;SPS30;71522;50.870;3.524;2024-02-23T08:46:09;4.52;4.05;3.07;1.82;14.56;14.50;14.27;13.11;9.51;0.85
82002;SPS30;71522;50.870;3.524;2024-02-23T08:48:35;4.43;3.96;2.99;1.74;13.98;13.93;13.69;12.55;9.03;0.87
82002;SPS30;71522;50.870;3.524;2024-02-23T08:51:00;4.30;3.84;2.90;1.69;13.57;13.51;13.29;12.17;8.76;0.88
82002;SPS30;71522;50.870;3.524;2024-02-23T08:53:33;4.61;4.14;3.17;1.91;15.32;15.27;15.04;13.88;10.18;0.86
82002;SPS30;71522;50.870;3.524;2024-02-23T08:55:59;4.90;4.40;3.39;2.07;16.60;16.54;16.30;15.09;11.14;0.85
82002;SPS30;71522;50.870;3.524;2024-02-23T08:58:25;4.58;4.13;3.20;1.99;15.98;15.93;15.71;14.61;10.89;0.82
82002;SPS30;71522;50.870;3.524;2024-02-23T09:00:51;4.66;4.20;3.26;2.02;16.20;16.15;15.92;14.79;11.01;0.81
82002;SPS30;71522;50.870;3.524;2024-02-23T09:03:18;4.67;4.22;3.28;2.06;16.49;16.44;16.21;15.10;11.30;0.82
82002;SPS30;71522;50.870;3.524;2024-02-23T09:05:43;4.74;4.29;3.34;2.10;16.85;16.79;16.57;15.44;11.57;0.81
82002;SPS30;71522;50.870;3.524;2024-02-23T09:08:13;4.30;3.89;3.03;1.90;15.19;15.14;14.94;13.91;10.41;0.82
82002;SPS30;71522;50.870;3.524;2024-02-23T09:10:39;3.74;3.39;2.65;1.68;13.45;13.41;13.23;12.35;9.29;0.82
82002;SPS30;71522;50.870;3.524;2024-02-23T09:13:05;3.83;3.49;2.79;1.86;14.91;14.87;14.70;13.87;10.68;0.79
82002;SPS30;71522;50.870;3.524;2024-02-23T09:15:31;3.70;3.37;2.69;1.78;14.22;14.18;14.02;13.20;10.12;0.78
82002;SPS30;71522;50.870;3.524;2024-02-23T09:17:57;3.65;3.32;2.66;1.78;14.24;14.20;14.04;13.24;10.20;0.77
82002;SPS30;71522;50.870;3.524;2024-02-23T09:20:22;3.70;3.35;2.64;1.70;13.61;13.56;13.39;12.54;9.50;0.80
82002;SPS30;71522;50.870;3.524;2024-02-23T09:22:48;3.66;3.31;2.58;1.63;13.02;12.98;12.81;11.94;8.95;0.81